Salem, OR (97303)

1:24 PM PST on February 10, 2016 (GMT -0800)
Country Glen | | Change Station
CLOSE
Current Station
Personal Weather Station
Location: Keizer, OR
Elevation: 134 ft
Nearby Weather Stations

Elev 134 ft 45.02 °N, 123.02 °W | Updated 29 seconds ago

Overcast
Overcast
60.5 °F
Feels Like 60.5 °F
N
1.8
Wind Variable Wind from SSE
Gusts 4.0 mph

Today
High -- | Low -- °F
--% Chance of Precip.
Yesterday
High -- | Low -- °F
Precip. -- in
Pressure 30.28 in
Visibility 10.0 miles
Clouds Overcast 8500 ft
Dew Point 51 °F
Humidity 70%
Rainfall 0.00 in
Snow Depth Not available.
7:20 AM 5:32 PM
Waxing Crescent, 7% visible
METAR KSLE 102056Z 19011KT 10SM OVC085 16/09 A3027 RMK AO2 SLP252 T01560089 50007
Pressure 30.28 in
Visibility 10.0 miles
Clouds Overcast 8500 ft
Dew Point 51 °F
Humidity 70%
Rainfall 0.00 in
Snow Depth Not available.
7:20 AM 5:32 PM
Waxing Crescent, 7% visible
METAR KSLE 102056Z 19011KT 10SM OVC085 16/09 A3027 RMK AO2 SLP252 T01560089 50007

10-Day Weather Forecast

Almanac

Astronomy

Feb. 10, 2016 Rise Set
Actual Time
Civil Twilight
Nautical Twilight
Astronomical Twilight
Moon
Length of Visible Light
Length of Day
Tomorrow will be .
, % of the Moon is Illuminated

Today's Extremes

State Highs State Lows

Community

WunderPhotos

Upload Photos

1,891,949 photos uploaded!

WunderBlog® & News

Nearby

Air Quality

  Air Quality AQ Index Pollutant
Not available.

Snow Depth

Station Depth Elevation

Earthquake Activity

City Distance Mag. Time & Date
Minimum magnitude displayed is 2.5.

Coastal Water Temperatures

Place Temperature

Stations

Nearby Weather Stations

Station Location Temp. Windchill Dew Point Humidity Wind Precip. Elev Updated Type
                   

Watches & Warnings

There are currently no watches in effect.